Royal Melbourne — WDC2865 — position and weather

sailwx.info

Track history (hours):
 
Tides and Currents Weather Stations Pressure Air Temp Water Temp Dewpoint Dewpoint Depression Visibility Wind Speed Wind Dir Waves Ship Positions

Royal Melbourne

Owner: Harley Marine Services, Inc, Seattle, WA. More information available from US FCC via Universal Licensing System and Coast Guard Vessel Documentation Center.

Last reported at 2018-Apr-19 15:28 UTC. Time now 2018-Apr-19 15:47 UTC.
Position N 37°46' W 122°21'.

Length 22 m; draft 3 m.

Type: Tug. MMSI: 366998830.

Date/timePositionNaut miles runAvg speedWind from/ knotsBaromVisibWave heightAir tempDewpointWater temp
2018-Apr-19 15:28N 37°46' W 122°21'0 0.0
2018-Apr-19 14:58N 37°46' W 122°21'0 0.0
2018-Apr-19 14:30N 37°46' W 122°21'1 2.2
2018-Apr-19 14:00N 37°47' W 122°22'3 6.1
2018-Apr-19 13:30N 37°50' W 122°23'4 8.8
2018-Apr-19 13:00N 37°54' W 122°25'2 4.8
2018-Apr-19 12:30N 37°55' W 122°22'0 0.0
2018-Apr-19 12:00N 37°55' W 122°22'0 0.0
2018-Apr-19 11:30N 37°55' W 122°22'0 0.0
2018-Apr-19 11:00N 37°55' W 122°22'0 0.0
2018-Apr-19 10:30N 37°55' W 122°22'0 0.0
2018-Apr-19 10:00N 37°55' W 122°22'0 0.0
2018-Apr-19 09:30N 37°55' W 122°22'0 0.0
2018-Apr-19 09:00N 37°55' W 122°22'0 0.0
2018-Apr-19 08:30N 37°55' W 122°22'1 2.5
2018-Apr-19 08:00N 37°54' W 122°23'3 7.0
2018-Apr-19 07:30N 37°57' W 122°26'4 7.4
2018-Apr-19 07:00N 38°01' W 122°24'5 8.9
2018-Apr-19 06:30N 38°03' W 122°19'3 5.5
2018-Apr-19 06:00N 38°03' W 122°16'0 0.0
2018-Apr-19 05:29N 38°03' W 122°16'0 0.0
2018-Apr-19 04:53N 38°03' W 122°16'0 0.0
2018-Apr-19 04:23N 38°03' W 122°16'0 0.0
2018-Apr-19 03:59N 38°03' W 122°16'0 0.0
2018-Apr-19 03:29N 38°03' W 122°16'0 0.0
2018-Apr-19 00:11N 38°03' W 122°16'0 0.0
2018-Apr-18 23:53N 38°03' W 122°16'0 0.0
2018-Apr-18 23:29N 38°03' W 122°16'0 0.0
2018-Apr-18 22:59N 38°03' W 122°16'0 0.0
2018-Apr-18 22:29N 38°03' W 122°16'0 0.0
2018-Apr-18 21:59N 38°03' W 122°16'0 0.0
2018-Apr-18 19:17N 38°03' W 122°16'0 0.0
2018-Apr-18 18:59N 38°03' W 122°16'0 0.0
2018-Apr-18 18:29N 38°03' W 122°16'0 0.0
2018-Apr-18 16:59N 38°03' W 122°16'2 3.5
2018-Apr-18 16:30N 38°03' W 122°18'2 3.5
2018-Apr-18 16:00N 38°03' W 122°20'2 3.5
2018-Apr-18 15:30N 38°02' W 122°22'2 4.1
2018-Apr-18 15:00N 38°01' W 122°24'2 4.5
2018-Apr-18 14:30N 37°59' W 122°25'2 4.8
2018-Apr-18 14:00N 37°56' W 122°26'1 2.4
2018-Apr-18 13:29N 37°55' W 122°25'0 0.0
2018-Apr-18 13:00N 37°55' W 122°25'0 0.0
2018-Apr-18 12:30N 37°55' W 122°25'0 0.0
2018-Apr-18 12:00N 37°55' W 122°25'0 0.0
2018-Apr-18 11:30N 37°55' W 122°25'0 0.0
2018-Apr-18 11:00N 37°55' W 122°25'0 0.0
2018-Apr-18 10:30N 37°55' W 122°25'0 0.0
2018-Apr-18 10:00N 37°55' W 122°25'0 0.0
2018-Apr-18 09:30N 37°55' W 122°25'0 0.0
2018-Apr-18 09:00N 37°55' W 122°25'0 0.0
2018-Apr-18 08:30N 37°55' W 122°25'0 0.0
2018-Apr-18 08:00N 37°55' W 122°25'0 0.0
2018-Apr-18 07:30N 37°55' W 122°25'0 0.0
2018-Apr-18 07:00N 37°55' W 122°25'0 0.0
2018-Apr-18 06:30N 37°55' W 122°25'0 0.0
2018-Apr-18 06:00N 37°55' W 122°25'0 0.0
2018-Apr-18 05:30N 37°55' W 122°25'0 0.0
2018-Apr-18 05:00N 37°55' W 122°25'0 0.0
2018-Apr-18 04:30N 37°55' W 122°25'0 0.0
2018-Apr-18 04:00N 37°55' W 122°25'0 0.0
2018-Apr-18 03:30N 37°55' W 122°25'0 0.0
2018-Apr-18 03:00N 37°55' W 122°25'0 0.0
2018-Apr-18 02:30N 37°55' W 122°25'0 0.0
2018-Apr-18 02:00N 37°55' W 122°25'0 0.0
2018-Apr-18 01:30N 37°55' W 122°25'0 0.3
2018-Apr-18 01:00N 37°55' W 122°25'3 4.8
2018-Apr-18 00:29N 37°53' W 122°25'5 9.8
2018-Apr-18 00:00N 37°49' W 122°21'3 5.1
2018-Apr-17 23:30N 37°48' W 122°19'0 0.0
2018-Apr-17 22:59N 37°48' W 122°19'0 0.0
2018-Apr-17 22:29N 37°48' W 122°19'0 0.0
2018-Apr-17 21:59N 37°48' W 122°19'0 0.0
2018-Apr-17 21:29N 37°48' W 122°19'0 0.0
2018-Apr-17 20:59N 37°48' W 122°19'0 0.0
2018-Apr-17 20:29N 37°48' W 122°19'0 0.0
2018-Apr-17 19:59N 37°48' W 122°19'0 0.0
2018-Apr-17 19:29N 37°48' W 122°19'0 0.0
2018-Apr-17 18:59N 37°48' W 122°19'0 0.0
2018-Apr-17 18:30N 37°48' W 122°19'0 0.8
2018-Apr-17 18:00N 37°48' W 122°19'5 9.3
2018-Apr-17 17:30N 37°51' W 122°23'3 6.4
2018-Apr-17 17:00N 37°54' W 122°23'1 1.6
2018-Apr-17 16:25N 37°55' W 122°22'0 0.0
2018-Apr-17 15:55N 37°55' W 122°22'0 0.0
2018-Apr-17 15:25N 37°55' W 122°22'0 0.0
2018-Apr-17 14:55N 37°55' W 122°22'0 0.0
2018-Apr-17 14:28N 37°55' W 122°22'0 0.0
2018-Apr-17 13:55N 37°55' W 122°22'0 0.0
2018-Apr-17 13:25N 37°55' W 122°22'0 0.0
2018-Apr-17 12:58N 37°55' W 122°22'0 0.0
2018-Apr-17 12:28N 37°55' W 122°22'0 0.0
2018-Apr-17 11:58N 37°55' W 122°22'0 0.0
2018-Apr-17 11:25N 37°55' W 122°22'0 0.0
2018-Apr-17 11:01N 37°55' W 122°22'0 0.0
2018-Apr-17 10:31N 37°55' W 122°22'0 0.0
2018-Apr-17 10:01N 37°55' W 122°22'0 0.0
2018-Apr-17 09:24N 37°55' W 122°22'0 0.0
2018-Apr-17 09:00N 37°55' W 122°22'0 0.0
2018-Apr-17 08:30N 37°55' W 122°22'0 0.0
2018-Apr-17 08:00N 37°55' W 122°22'0 0.0
2018-Apr-17 07:30N 37°55' W 122°22'0 0.0
2018-Apr-17 07:00N 37°55' W 122°22'0 0.0
2018-Apr-17 06:30N 37°55' W 122°22'0 0.0
2018-Apr-17 06:00N 37°55' W 122°22'0 0.0
2018-Apr-17 05:24N 37°55' W 122°22'0 0.0
2018-Apr-17 05:00N 37°55' W 122°22'0 0.0
2018-Apr-17 04:30N 37°55' W 122°22'0 0.0
2018-Apr-17 04:00N 37°55' W 122°22'0 0.0
2018-Apr-17 03:30N 37°55' W 122°22'0 0.0
2018-Apr-17 02:54N 37°55' W 122°22'0 0.3
2018-Apr-17 02:30N 37°55' W 122°22'2 4.8
2018-Apr-17 02:00N 37°55' W 122°25'4 8.4
2018-Apr-17 01:30N 37°59' W 122°25'4 8.4
2018-Apr-17 01:00N 38°02' W 122°21'4 7.7
2018-Apr-17 00:30N 38°03' W 122°17'7 0.3
2018-Apr-15 22:30N 38°02' W 122°08'4 7.3
2018-Apr-15 22:00N 38°03' W 122°13'510.1
2018-Apr-15 21:28N 38°03' W 122°19'5 9.9
2018-Apr-15 21:00N 38°00' W 122°24'5 9.2
2018-Apr-15 20:30N 37°56' W 122°26'5 9.6
2018-Apr-15 20:00N 37°51' W 122°23'4 8.6
2018-Apr-15 19:30N 37°48' W 122°20'1 1.2
2018-Apr-15 18:59N 37°48' W 122°19'0 0.0
2018-Apr-15 18:29N 37°48' W 122°19'0 0.0
2018-Apr-15 17:59N 37°48' W 122°19'0 0.0
2018-Apr-15 17:29N 37°48' W 122°19'0 0.0
2018-Apr-15 16:59N 37°48' W 122°19'0 0.0
2018-Apr-15 16:29N 37°48' W 122°19'0 0.0
2018-Apr-15 15:59N 37°48' W 122°19'0 0.0
2018-Apr-15 15:26N 37°48' W 122°19'0 0.0
2018-Apr-15 14:59N 37°48' W 122°19'1 2.7
2018-Apr-15 14:30N 37°48' W 122°21'1 2.2
2018-Apr-15 13:58N 37°46' W 122°21'0 0.1
2018-Apr-15 13:28N 37°46' W 122°21'0 0.0
2018-Apr-15 12:58N 37°46' W 122°21'0 0.0
2018-Apr-15 12:28N 37°46' W 122°21'0 0.0
2018-Apr-15 11:58N 37°46' W 122°21'0 0.0
2018-Apr-15 11:28N 37°46' W 122°21'0 0.0
2018-Apr-15 10:58N 37°46' W 122°21'0 0.0
2018-Apr-15 10:28N 37°46' W 122°21'0 0.0
2018-Apr-15 09:58N 37°46' W 122°21'0 0.0
2018-Apr-15 09:28N 37°46' W 122°21'0 0.0
2018-Apr-15 08:58N 37°46' W 122°21'0 0.0
2018-Apr-15 08:30N 37°46' W 122°21'2 3.4
2018-Apr-15 08:00N 37°48' W 122°22'4 7.9
2018-Apr-15 07:30N 37°52' W 122°24'3 5.4
2018-Apr-15 07:00N 37°54' W 122°23'1 2.2
2018-Apr-15 06:30N 37°55' W 122°22'0 0.0
2018-Apr-15 05:58N 37°55' W 122°22'0 0.0
2018-Apr-15 05:28N 37°55' W 122°22'0 0.0
2018-Apr-15 04:58N 37°55' W 122°22'0 0.0
2018-Apr-15 04:28N 37°55' W 122°22'0 0.0
2018-Apr-15 03:58N 37°55' W 122°22'0 0.0
2018-Apr-15 03:28N 37°55' W 122°22'0 0.0
2018-Apr-15 02:58N 37°55' W 122°22'0 0.0
2018-Apr-15 02:28N 37°55' W 122°22'0 0.0
2018-Apr-15 01:58N 37°55' W 122°22'0 0.0
2018-Apr-15 01:28N 37°55' W 122°22'0 0.0
2018-Apr-15 00:58N 37°55' W 122°22'0 0.0
2018-Apr-15 00:28N 37°55' W 122°22'0 0.0
2018-Apr-15 00:00N 37°55' W 122°22'2 3.6
2018-Apr-14 23:30N 37°54' W 122°24'4 7.4
2018-Apr-14 23:00N 37°51' W 122°24'2 4.9
2018-Apr-14 22:30N 37°48' W 122°24'0 0.0
2018-Apr-14 22:00N 37°48' W 122°24'0 0.0
2018-Apr-14 21:27N 37°48' W 122°24'0 0.1
2018-Apr-14 21:00N 37°48' W 122°24'0 0.0
2018-Apr-14 20:27N 37°48' W 122°24'0 0.1
2018-Apr-14 20:00N 37°48' W 122°24'0 0.0
2018-Apr-14 19:30N 37°48' W 122°24'0 0.1
2018-Apr-14 19:00N 37°48' W 122°24'0 0.1
2018-Apr-14 18:12N 37°48' W 122°24'0 0.0
2018-Apr-14 17:45N 37°48' W 122°24'0 0.2
2018-Apr-14 17:30N 37°48' W 122°24'0 0.0
2018-Apr-14 16:57N 37°48' W 122°24'0 0.1
2018-Apr-14 16:18N 37°48' W 122°24'0 0.2
2018-Apr-14 16:00N 37°48' W 122°24'0 0.0
2018-Apr-14 15:30N 37°48' W 122°24'0 0.0
2018-Apr-14 15:00N 37°48' W 122°24'0 0.0
2018-Apr-14 14:30N 37°48' W 122°24'0 0.4
2018-Apr-14 14:00N 37°48' W 122°24'0 0.9
2018-Apr-14 13:30N 37°48' W 122°23'3 5.9
2018-Apr-14 13:00N 37°48' W 122°20'2 4.0
2018-Apr-14 12:30N 37°48' W 122°17'0 0.1
2018-Apr-14 12:00N 37°48' W 122°17'0 0.1
2018-Apr-14 11:30N 37°48' W 122°17'0 0.0
2018-Apr-14 11:00N 37°48' W 122°17'0 0.1
2018-Apr-14 10:30N 37°48' W 122°17'0 0.1
2018-Apr-14 10:00N 37°48' W 122°17'0 0.0
2018-Apr-14 09:30N 37°48' W 122°17'0 0.0
2018-Apr-14 09:01N 37°48' W 122°17'0 0.0
2018-Apr-14 08:30N 37°48' W 122°17'2 3.8
2018-Apr-14 08:00N 37°48' W 122°19'3 6.5
2018-Apr-14 07:30N 37°45' W 122°21'3 4.6
2018-Apr-14 06:58N 37°42' W 122°20'0 0.0
2018-Apr-14 03:28N 37°42' W 122°20'0 0.0
2018-Apr-14 02:58N 37°42' W 122°20'0 0.0
2018-Apr-14 01:52N 37°42' W 122°20'0 0.2
2018-Apr-14 01:19N 37°43' W 122°20'0 0.2
2018-Apr-14 00:58N 37°43' W 122°20'3 6.6
2018-Apr-14 00:30N 37°46' W 122°21'4 7.3
2018-Apr-14 00:01N 37°49' W 122°23'4 7.6
2018-Apr-13 23:30N 37°53' W 122°24'2 5.0
2018-Apr-13 23:00N 37°55' W 122°22'0 0.7
2018-Apr-13 22:23N 37°55' W 122°22'0 0.0
2018-Apr-13 21:59N 37°55' W 122°22'0 0.0
2018-Apr-13 21:29N 37°55' W 122°22'0 0.0
2018-Apr-13 20:59N 37°55' W 122°22'0 0.0
2018-Apr-13 20:29N 37°55' W 122°22'0 0.0
2018-Apr-13 19:59N 37°55' W 122°22'0 0.0
2018-Apr-13 19:29N 37°55' W 122°22'0 0.0
2018-Apr-13 19:00N 37°55' W 122°22'2 3.2
2018-Apr-13 18:30N 37°54' W 122°24'4 8.5
2018-Apr-13 18:00N 37°50' W 122°23'4 8.3
2018-Apr-13 17:30N 37°46' W 122°21'2 3.4
2018-Apr-13 17:01N 37°45' W 122°21'0 0.0
2018-Apr-13 16:30N 37°45' W 122°21'0 0.0
2018-Apr-13 16:00N 37°45' W 122°21'0 0.0
2018-Apr-13 15:30N 37°45' W 122°21'0 0.0
2018-Apr-13 15:00N 37°45' W 122°21'0 0.0
2018-Apr-13 14:30N 37°45' W 122°21'0 0.0
2018-Apr-13 14:00N 37°45' W 122°21'0 0.1
2018-Apr-13 13:30N 37°45' W 122°20'0 0.1
2018-Apr-13 13:00N 37°45' W 122°21'0 0.2
2018-Apr-13 12:30N 37°45' W 122°21'0 0.3
2018-Apr-13 12:00N 37°45' W 122°21'0 0.1
2018-Apr-13 11:30N 37°45' W 122°21'0 0.0
2018-Apr-13 11:00N 37°45' W 122°21'2 3.2
2018-Apr-13 10:30N 37°44' W 122°20'0 0.7
2018-Apr-13 10:00N 37°43' W 122°20'0 0.0
2018-Apr-13 09:30N 37°43' W 122°20'0 0.0
2018-Apr-13 09:00N 37°43' W 122°20'0 0.0
2018-Apr-13 08:30N 37°43' W 122°20'0 0.4
2018-Apr-13 08:00N 37°43' W 122°20'0 0.2
2018-Apr-13 07:15N 37°43' W 122°20'0 0.0
2018-Apr-13 04:45N 37°43' W 122°20'0 0.0
2018-Apr-13 04:27N 37°43' W 122°20'0 0.0
2018-Apr-13 03:27N 37°43' W 122°20'0 0.0
2018-Apr-13 03:00N 37°43' W 122°20'0 0.0
2018-Apr-13 02:30N 37°43' W 122°20'0 0.0
2018-Apr-13 00:25N 37°43' W 122°20'0 0.1
2018-Apr-13 00:00N 37°43' W 122°20'3 6.8
2018-Apr-12 23:30N 37°46' W 122°21'3 5.4
2018-Apr-12 23:00N 37°48' W 122°17'0 0.6
2018-Apr-12 22:25N 37°48' W 122°17'0 0.0
2018-Apr-12 21:55N 37°48' W 122°17'0 0.0
2018-Apr-12 21:28N 37°48' W 122°17'0 0.0
2018-Apr-12 20:58N 37°48' W 122°17'0 0.0
2018-Apr-12 20:28N 37°48' W 122°17'0 0.0
2018-Apr-12 19:58N 37°48' W 122°17'0 0.0
2018-Apr-12 19:28N 37°48' W 122°17'0 0.0
2018-Apr-12 18:55N 37°48' W 122°17'0 0.0
2018-Apr-12 18:25N 37°48' W 122°17'0 0.0
2018-Apr-12 17:58N 37°48' W 122°17'0 0.0
2018-Apr-12 17:19N 37°48' W 122°17'0 0.0
2018-Apr-12 16:58N 37°48' W 122°17'0 0.0
2018-Apr-12 16:28N 37°48' W 122°17'0 0.0
2018-Apr-12 15:58N 37°48' W 122°17'0 0.0
2018-Apr-12 15:25N 37°48' W 122°17'0 0.3
2018-Apr-12 15:00N 37°48' W 122°17'0 0.2
2018-Apr-12 14:30N 37°48' W 122°17'0 0.5
2018-Apr-12 14:00N 37°48' W 122°17'0 0.4
2018-Apr-12 13:30N 37°48' W 122°17'0 0.3
2018-Apr-12 13:00N 37°48' W 122°17'0 0.1
2018-Apr-12 12:30N 37°48' W 122°17'0 0.0
2018-Apr-12 12:00N 37°48' W 122°17'0 0.0
2018-Apr-12 11:30N 37°48' W 122°17'0 0.0
2018-Apr-12 11:00N 37°48' W 122°17'0 0.0
2018-Apr-12 10:30N 37°48' W 122°17'0 0.0
2018-Apr-12 10:00N 37°48' W 122°17'0 0.0
2018-Apr-12 09:30N 37°48' W 122°17'0 0.0
2018-Apr-12 09:00N 37°48' W 122°17'0 0.0
2018-Apr-12 08:30N 37°48' W 122°17'0 0.0
2018-Apr-12 08:00N 37°48' W 122°17'0 0.0
2018-Apr-12 07:30N 37°48' W 122°17'0 0.0
2018-Apr-12 07:00N 37°48' W 122°17'0 0.0
2018-Apr-12 06:30N 37°48' W 122°17'0 0.0
2018-Apr-12 06:00N 37°48' W 122°17'0 0.0
2018-Apr-12 05:30N 37°48' W 122°17'0 0.0
2018-Apr-12 05:00N 37°48' W 122°17'0 0.0
2018-Apr-12 04:30N 37°48' W 122°17'0 0.0
2018-Apr-12 04:00N 37°48' W 122°17'0 0.0
2018-Apr-12 03:30N 37°48' W 122°17'0 0.0
2018-Apr-12 03:00N 37°48' W 122°17'0 0.0
2018-Apr-12 02:30N 37°48' W 122°17'0 0.0
2018-Apr-12 02:00N 37°48' W 122°17'0 0.0
2018-Apr-12 01:30N 37°48' W 122°17'0 0.0
2018-Apr-12 01:00N 37°48' W 122°17'0 0.0
2018-Apr-12 00:30N 37°48' W 122°17'0 0.0
2018-Apr-12 00:00N 37°48' W 122°17'0 0.0
2018-Apr-11 23:30N 37°48' W 122°17'0 0.0
2018-Apr-11 23:00N 37°48' W 122°17'0 0.0
2018-Apr-11 22:30N 37°48' W 122°17'0 0.0
2018-Apr-11 22:00N 37°48' W 122°17'0 0.0
2018-Apr-11 21:30N 37°48' W 122°17'0 0.0
2018-Apr-11 21:00N 37°48' W 122°17'0 0.0
2018-Apr-11 20:30N 37°48' W 122°17'0 0.0
2018-Apr-11 20:00N 37°48' W 122°17'0 0.0
2018-Apr-11 19:30N 37°48' W 122°17'0 0.0
2018-Apr-11 19:00N 37°48' W 122°17'0 0.0
2018-Apr-11 18:30N 37°48' W 122°17'0 0.0
2018-Apr-11 18:00N 37°48' W 122°17'0 0.0
2018-Apr-11 17:30N 37°48' W 122°17'0 0.0
2018-Apr-11 17:01N 37°48' W 122°17'0 0.0
2018-Apr-11 16:30N 37°48' W 122°17'0 0.0
2018-Apr-11 16:00N 37°48' W 122°17'0 0.0
2018-Apr-11 15:30N 37°48' W 122°17'0 0.0
2018-Apr-11 15:00N 37°48' W 122°17'0 0.0
2018-Apr-11 14:30N 37°48' W 122°17'0 0.0
2018-Apr-11 14:00N 37°48' W 122°17'0 0.0
2018-Apr-11 13:30N 37°48' W 122°17'0 0.0
2018-Apr-11 13:00N 37°48' W 122°17'0 0.0
2018-Apr-11 12:30N 37°48' W 122°17'0 0.0
2018-Apr-11 12:00N 37°48' W 122°17'0 0.0
2018-Apr-11 11:30N 37°48' W 122°17'0 0.0
2018-Apr-11 11:00N 37°48' W 122°17'0 0.0
2018-Apr-11 10:30N 37°48' W 122°17'0 0.0
2018-Apr-11 10:00N 37°48' W 122°17'0 0.0
2018-Apr-11 09:31N 37°48' W 122°17'0 0.0
2018-Apr-11 09:00N 37°48' W 122°17'0 0.0
2018-Apr-11 08:30N 37°48' W 122°17'0 0.0
2018-Apr-11 08:00N 37°48' W 122°17'0 0.0
2018-Apr-11 07:30N 37°48' W 122°17'0 0.0
2018-Apr-11 07:00N 37°48' W 122°17'0 0.0
2018-Apr-11 06:30N 37°48' W 122°17'0 0.0
2018-Apr-11 06:00N 37°48' W 122°17'0 0.0
2018-Apr-11 05:30N 37°48' W 122°17'0 0.0
2018-Apr-11 05:00N 37°48' W 122°17'0 0.0
2018-Apr-11 04:30N 37°48' W 122°17'0 0.0
2018-Apr-11 04:00N 37°48' W 122°17'0 0.0
2018-Apr-11 03:30N 37°48' W 122°17'0 0.0
2018-Apr-11 03:00N 37°48' W 122°17'0 0.0
2018-Apr-11 02:30N 37°48' W 122°17'0 0.0
2018-Apr-11 02:00N 37°48' W 122°17'0 0.0
2018-Apr-11 01:30N 37°48' W 122°17'0 0.0
2018-Apr-11 01:00N 37°48' W 122°17'0 0.0
2018-Apr-11 00:30N 37°48' W 122°17'0 0.0
2018-Apr-11 00:00N 37°48' W 122°17'0 0.0
2018-Apr-10 23:30N 37°48' W 122°17'0 0.0
2018-Apr-10 23:00N 37°48' W 122°17'0 0.0
2018-Apr-10 22:30N 37°48' W 122°17'0 0.0
2018-Apr-10 22:00N 37°48' W 122°17'0 0.0
2018-Apr-10 21:30N 37°48' W 122°17'0 0.0
2018-Apr-10 21:00N 37°48' W 122°17'0 0.0
2018-Apr-10 20:30N 37°48' W 122°17'0 0.0
2018-Apr-10 20:00N 37°48' W 122°17'0 0.0
2018-Apr-10 19:30N 37°48' W 122°17'0 0.0
2018-Apr-10 19:00N 37°48' W 122°17'0 0.0
2018-Apr-10 18:30N 37°48' W 122°17'0 0.0
2018-Apr-10 18:00N 37°48' W 122°17'0 0.0
2018-Apr-10 17:30N 37°48' W 122°17'0 0.0
2018-Apr-10 17:00N 37°48' W 122°17'0 0.0
2018-Apr-10 16:30N 37°48' W 122°17'0 0.0
2018-Apr-10 16:00N 37°48' W 122°17'0 0.0
2018-Apr-10 15:30N 37°48' W 122°17'0 0.0
2018-Apr-10 15:00N 37°48' W 122°17'0 0.0
2018-Apr-10 14:30N 37°48' W 122°17'0 0.0
2018-Apr-10 14:00N 37°48' W 122°17'0 0.0
2018-Apr-10 13:30N 37°48' W 122°17'0 0.0
2018-Apr-10 13:00N 37°48' W 122°17'0 0.0
2018-Apr-10 12:30N 37°48' W 122°17'0 0.0
2018-Apr-10 12:00N 37°48' W 122°17'0 0.0
2018-Apr-10 11:30N 37°48' W 122°17'0 0.0
2018-Apr-10 10:59N 37°48' W 122°17'0 0.0
2018-Apr-10 10:30N 37°48' W 122°17'0 0.0
2018-Apr-10 10:00N 37°48' W 122°17'0 0.0
2018-Apr-10 09:30N 37°48' W 122°17'0 0.0
2018-Apr-10 09:00N 37°48' W 122°17'0 0.0
2018-Apr-10 08:30N 37°48' W 122°17'0 0.0
2018-Apr-10 08:00N 37°48' W 122°17'0 0.0
2018-Apr-10 07:30N 37°48' W 122°17'0 0.0
2018-Apr-10 07:00N 37°48' W 122°17'0 0.0
2018-Apr-10 06:30N 37°48' W 122°17'0 0.0
2018-Apr-10 06:00N 37°48' W 122°17'0 0.0
2018-Apr-10 05:30N 37°48' W 122°17'0 0.0
2018-Apr-10 05:00N 37°48' W 122°17'0 0.0
2018-Apr-10 04:30N 37°48' W 122°17'0 0.0
2018-Apr-10 04:00N 37°48' W 122°17'0 0.0
2018-Apr-10 03:30N 37°48' W 122°17'0 0.0
2018-Apr-10 03:01N 37°48' W 122°17'0 0.0
2018-Apr-10 02:30N 37°48' W 122°17'0 0.0
2018-Apr-10 02:00N 37°48' W 122°17'0 0.0
2018-Apr-10 01:30N 37°48' W 122°17'0 0.1
2018-Apr-10 01:00N 37°48' W 122°17'0 0.1
2018-Apr-10 00:30N 37°48' W 122°17'0 0.0
2018-Apr-10 00:00N 37°48' W 122°17'0 0.0
2018-Apr-09 23:30N 37°48' W 122°17'0 0.0
2018-Apr-09 23:00N 37°48' W 122°17'0 0.0
2018-Apr-09 22:30N 37°48' W 122°17'0 0.0
2018-Apr-09 22:00N 37°48' W 122°17'0 0.1
2018-Apr-09 21:30N 37°48' W 122°17'1 1.4
2018-Apr-09 21:00N 37°48' W 122°18'4 7.2
2018-Apr-09 20:30N 37°50' W 122°22'4 7.7
2018-Apr-09 20:00N 37°53' W 122°24'2 4.6
2018-Apr-09 19:30N 37°55' W 122°22'0 0.7
2018-Apr-09 18:57N 37°55' W 122°22'0 0.0
2018-Apr-09 18:12N 37°55' W 122°22'0 0.0
2018-Apr-09 18:00N 37°55' W 122°22'0 0.0
2018-Apr-09 17:21N 37°55' W 122°22'0 0.0
2018-Apr-09 17:00N 37°55' W 122°22'0 0.0
2018-Apr-09 16:18N 37°55' W 122°22'0 0.0
2018-Apr-09 16:00N 37°55' W 122°22'0 0.0
2018-Apr-09 15:30N 37°55' W 122°22'  
Track history (hours):
 
Tides and Currents Weather Stations Pressure Air Temp Water Temp Dewpoint Dewpoint Depression Visibility Wind Speed Wind Dir Waves Ship Positions

Royal Melbourne

Owner: Harley Marine Services, Inc, Seattle, WA. More information available from US FCC via Universal Licensing System and Coast Guard Vessel Documentation Center.

Last reported at 2018-Apr-19 15:28 UTC. Time now 2018-Apr-19 15:47 UTC.
Position N 37°46' W 122°21'.

Length 22 m; draft 3 m.

Type: Tug. MMSI: 366998830.

Date/timePositionNaut miles runAvg speedWind from/ knotsBaromVisibWave heightAir tempDewpointWater temp
2018-Apr-19 15:28N 37°46' W 122°21'0 0.0
2018-Apr-19 14:58N 37°46' W 122°21'0 0.0
2018-Apr-19 14:30N 37°46' W 122°21'1 2.2
2018-Apr-19 14:00N 37°47' W 122°22'3 6.1
2018-Apr-19 13:30N 37°50' W 122°23'4 8.8
2018-Apr-19 13:00N 37°54' W 122°25'2 4.8
2018-Apr-19 12:30N 37°55' W 122°22'0 0.0
2018-Apr-19 12:00N 37°55' W 122°22'0 0.0
2018-Apr-19 11:30N 37°55' W 122°22'0 0.0
2018-Apr-19 11:00N 37°55' W 122°22'0 0.0
2018-Apr-19 10:30N 37°55' W 122°22'0 0.0
2018-Apr-19 10:00N 37°55' W 122°22'0 0.0
2018-Apr-19 09:30N 37°55' W 122°22'0 0.0
2018-Apr-19 09:00N 37°55' W 122°22'0 0.0
2018-Apr-19 08:30N 37°55' W 122°22'1 2.5
2018-Apr-19 08:00N 37°54' W 122°23'3 7.0
2018-Apr-19 07:30N 37°57' W 122°26'4 7.4
2018-Apr-19 07:00N 38°01' W 122°24'5 8.9
2018-Apr-19 06:30N 38°03' W 122°19'3 5.5
2018-Apr-19 06:00N 38°03' W 122°16'0 0.0
2018-Apr-19 05:29N 38°03' W 122°16'0 0.0
2018-Apr-19 04:53N 38°03' W 122°16'0 0.0
2018-Apr-19 04:23N 38°03' W 122°16'0 0.0
2018-Apr-19 03:59N 38°03' W 122°16'0 0.0
2018-Apr-19 03:29N 38°03' W 122°16'0 0.0
2018-Apr-19 00:11N 38°03' W 122°16'0 0.0
2018-Apr-18 23:53N 38°03' W 122°16'0 0.0
2018-Apr-18 23:29N 38°03' W 122°16'0 0.0
2018-Apr-18 22:59N 38°03' W 122°16'0 0.0
2018-Apr-18 22:29N 38°03' W 122°16'0 0.0
2018-Apr-18 21:59N 38°03' W 122°16'0 0.0
2018-Apr-18 19:17N 38°03' W 122°16'0 0.0
2018-Apr-18 18:59N 38°03' W 122°16'0 0.0
2018-Apr-18 18:29N 38°03' W 122°16'0 0.0
2018-Apr-18 16:59N 38°03' W 122°16'2 3.5
2018-Apr-18 16:30N 38°03' W 122°18'2 3.5
2018-Apr-18 16:00N 38°03' W 122°20'2 3.5
2018-Apr-18 15:30N 38°02' W 122°22'2 4.1
2018-Apr-18 15:00N 38°01' W 122°24'2 4.5
2018-Apr-18 14:30N 37°59' W 122°25'2 4.8
2018-Apr-18 14:00N 37°56' W 122°26'1 2.4
2018-Apr-18 13:29N 37°55' W 122°25'0 0.0
2018-Apr-18 13:00N 37°55' W 122°25'0 0.0
2018-Apr-18 12:30N 37°55' W 122°25'0 0.0
2018-Apr-18 12:00N 37°55' W 122°25'0 0.0
2018-Apr-18 11:30N 37°55' W 122°25'0 0.0
2018-Apr-18 11:00N 37°55' W 122°25'0 0.0
2018-Apr-18 10:30N 37°55' W 122°25'0 0.0
2018-Apr-18 10:00N 37°55' W 122°25'0 0.0
2018-Apr-18 09:30N 37°55' W 122°25'0 0.0
2018-Apr-18 09:00N 37°55' W 122°25'0 0.0
2018-Apr-18 08:30N 37°55' W 122°25'0 0.0
2018-Apr-18 08:00N 37°55' W 122°25'0 0.0
2018-Apr-18 07:30N 37°55' W 122°25'0 0.0
2018-Apr-18 07:00N 37°55' W 122°25'0 0.0
2018-Apr-18 06:30N 37°55' W 122°25'0 0.0
2018-Apr-18 06:00N 37°55' W 122°25'0 0.0
2018-Apr-18 05:30N 37°55' W 122°25'0 0.0
2018-Apr-18 05:00N 37°55' W 122°25'0 0.0
2018-Apr-18 04:30N 37°55' W 122°25'0 0.0
2018-Apr-18 04:00N 37°55' W 122°25'0 0.0
2018-Apr-18 03:30N 37°55' W 122°25'0 0.0
2018-Apr-18 03:00N 37°55' W 122°25'0 0.0
2018-Apr-18 02:30N 37°55' W 122°25'0 0.0
2018-Apr-18 02:00N 37°55' W 122°25'0 0.0
2018-Apr-18 01:30N 37°55' W 122°25'0 0.3
2018-Apr-18 01:00N 37°55' W 122°25'3 4.8
2018-Apr-18 00:29N 37°53' W 122°25'5 9.8
2018-Apr-18 00:00N 37°49' W 122°21'3 5.1
2018-Apr-17 23:30N 37°48' W 122°19'0 0.0
2018-Apr-17 22:59N 37°48' W 122°19'0 0.0
2018-Apr-17 22:29N 37°48' W 122°19'0 0.0
2018-Apr-17 21:59N 37°48' W 122°19'0 0.0
2018-Apr-17 21:29N 37°48' W 122°19'0 0.0
2018-Apr-17 20:59N 37°48' W 122°19'0 0.0
2018-Apr-17 20:29N 37°48' W 122°19'0 0.0
2018-Apr-17 19:59N 37°48' W 122°19'0 0.0
2018-Apr-17 19:29N 37°48' W 122°19'0 0.0
2018-Apr-17 18:59N 37°48' W 122°19'0 0.0
2018-Apr-17 18:30N 37°48' W 122°19'0 0.8
2018-Apr-17 18:00N 37°48' W 122°19'5 9.3
2018-Apr-17 17:30N 37°51' W 122°23'3 6.4
2018-Apr-17 17:00N 37°54' W 122°23'1 1.6
2018-Apr-17 16:25N 37°55' W 122°22'0 0.0
2018-Apr-17 15:55N 37°55' W 122°22'0 0.0
2018-Apr-17 15:25N 37°55' W 122°22'0 0.0
2018-Apr-17 14:55N 37°55' W 122°22'0 0.0
2018-Apr-17 14:28N 37°55' W 122°22'0 0.0
2018-Apr-17 13:55N 37°55' W 122°22'0 0.0
2018-Apr-17 13:25N 37°55' W 122°22'0 0.0
2018-Apr-17 12:58N 37°55' W 122°22'0 0.0
2018-Apr-17 12:28N 37°55' W 122°22'0 0.0
2018-Apr-17 11:58N 37°55' W 122°22'0 0.0
2018-Apr-17 11:25N 37°55' W 122°22'0 0.0
2018-Apr-17 11:01N 37°55' W 122°22'0 0.0
2018-Apr-17 10:31N 37°55' W 122°22'0 0.0
2018-Apr-17 10:01N 37°55' W 122°22'0 0.0
2018-Apr-17 09:24N 37°55' W 122°22'0 0.0
2018-Apr-17 09:00N 37°55' W 122°22'0 0.0
2018-Apr-17 08:30N 37°55' W 122°22'0 0.0
2018-Apr-17 08:00N 37°55' W 122°22'0 0.0
2018-Apr-17 07:30N 37°55' W 122°22'0 0.0
2018-Apr-17 07:00N 37°55' W 122°22'0 0.0
2018-Apr-17 06:30N 37°55' W 122°22'0 0.0
2018-Apr-17 06:00N 37°55' W 122°22'0 0.0
2018-Apr-17 05:24N 37°55' W 122°22'0 0.0
2018-Apr-17 05:00N 37°55' W 122°22'0 0.0
2018-Apr-17 04:30N 37°55' W 122°22'0 0.0
2018-Apr-17 04:00N 37°55' W 122°22'0 0.0
2018-Apr-17 03:30N 37°55' W 122°22'0 0.0
2018-Apr-17 02:54N 37°55' W 122°22'0 0.3
2018-Apr-17 02:30N 37°55' W 122°22'2 4.8
2018-Apr-17 02:00N 37°55' W 122°25'4 8.4
2018-Apr-17 01:30N 37°59' W 122°25'4 8.4
2018-Apr-17 01:00N 38°02' W 122°21'4 7.7
2018-Apr-17 00:30N 38°03' W 122°17'7 0.3
2018-Apr-15 22:30N 38°02' W 122°08'4 7.3
2018-Apr-15 22:00N 38°03' W 122°13'510.1
2018-Apr-15 21:28N 38°03' W 122°19'5 9.9
2018-Apr-15 21:00N 38°00' W 122°24'5 9.2
2018-Apr-15 20:30N 37°56' W 122°26'5 9.6
2018-Apr-15 20:00N 37°51' W 122°23'4 8.6
2018-Apr-15 19:30N 37°48' W 122°20'1 1.2
2018-Apr-15 18:59N 37°48' W 122°19'0 0.0
2018-Apr-15 18:29N 37°48' W 122°19'0 0.0
2018-Apr-15 17:59N 37°48' W 122°19'0 0.0
2018-Apr-15 17:29N 37°48' W 122°19'0 0.0
2018-Apr-15 16:59N 37°48' W 122°19'0 0.0
2018-Apr-15 16:29N 37°48' W 122°19'0 0.0
2018-Apr-15 15:59N 37°48' W 122°19'0 0.0
2018-Apr-15 15:26N 37°48' W 122°19'0 0.0
2018-Apr-15 14:59N 37°48' W 122°19'1 2.7
2018-Apr-15 14:30N 37°48' W 122°21'1 2.2
2018-Apr-15 13:58N 37°46' W 122°21'0 0.1
2018-Apr-15 13:28N 37°46' W 122°21'0 0.0
2018-Apr-15 12:58N 37°46' W 122°21'0 0.0
2018-Apr-15 12:28N 37°46' W 122°21'0 0.0
2018-Apr-15 11:58N 37°46' W 122°21'0 0.0
2018-Apr-15 11:28N 37°46' W 122°21'0 0.0
2018-Apr-15 10:58N 37°46' W 122°21'0 0.0
2018-Apr-15 10:28N 37°46' W 122°21'0 0.0
2018-Apr-15 09:58N 37°46' W 122°21'0 0.0
2018-Apr-15 09:28N 37°46' W 122°21'0 0.0
2018-Apr-15 08:58N 37°46' W 122°21'0 0.0
2018-Apr-15 08:30N 37°46' W 122°21'2 3.4
2018-Apr-15 08:00N 37°48' W 122°22'4 7.9
2018-Apr-15 07:30N 37°52' W 122°24'3 5.4
2018-Apr-15 07:00N 37°54' W 122°23'1 2.2
2018-Apr-15 06:30N 37°55' W 122°22'0 0.0
2018-Apr-15 05:58N 37°55' W 122°22'0 0.0
2018-Apr-15 05:28N 37°55' W 122°22'0 0.0
2018-Apr-15 04:58N 37°55' W 122°22'0 0.0
2018-Apr-15 04:28N 37°55' W 122°22'0 0.0
2018-Apr-15 03:58N 37°55' W 122°22'0 0.0
2018-Apr-15 03:28N 37°55' W 122°22'0 0.0
2018-Apr-15 02:58N 37°55' W 122°22'0 0.0
2018-Apr-15 02:28N 37°55' W 122°22'0 0.0
2018-Apr-15 01:58N 37°55' W 122°22'0 0.0
2018-Apr-15 01:28N 37°55' W 122°22'0 0.0
2018-Apr-15 00:58N 37°55' W 122°22'0 0.0
2018-Apr-15 00:28N 37°55' W 122°22'0 0.0
2018-Apr-15 00:00N 37°55' W 122°22'2 3.6
2018-Apr-14 23:30N 37°54' W 122°24'4 7.4
2018-Apr-14 23:00N 37°51' W 122°24'2 4.9
2018-Apr-14 22:30N 37°48' W 122°24'0 0.0
2018-Apr-14 22:00N 37°48' W 122°24'0 0.0
2018-Apr-14 21:27N 37°48' W 122°24'0 0.1
2018-Apr-14 21:00N 37°48' W 122°24'0 0.0
2018-Apr-14 20:27N 37°48' W 122°24'0 0.1
2018-Apr-14 20:00N 37°48' W 122°24'0 0.0
2018-Apr-14 19:30N 37°48' W 122°24'0 0.1
2018-Apr-14 19:00N 37°48' W 122°24'0 0.1
2018-Apr-14 18:12N 37°48' W 122°24'0 0.0
2018-Apr-14 17:45N 37°48' W 122°24'0 0.2
2018-Apr-14 17:30N 37°48' W 122°24'0 0.0
2018-Apr-14 16:57N 37°48' W 122°24'0 0.1
2018-Apr-14 16:18N 37°48' W 122°24'0 0.2
2018-Apr-14 16:00N 37°48' W 122°24'0 0.0
2018-Apr-14 15:30N 37°48' W 122°24'0 0.0
2018-Apr-14 15:00N 37°48' W 122°24'0 0.0
2018-Apr-14 14:30N 37°48' W 122°24'0 0.4
2018-Apr-14 14:00N 37°48' W 122°24'0 0.9
2018-Apr-14 13:30N 37°48' W 122°23'3 5.9
2018-Apr-14 13:00N 37°48' W 122°20'2 4.0
2018-Apr-14 12:30N 37°48' W 122°17'0 0.1
2018-Apr-14 12:00N 37°48' W 122°17'0 0.1
2018-Apr-14 11:30N 37°48' W 122°17'0 0.0
2018-Apr-14 11:00N 37°48' W 122°17'0 0.1
2018-Apr-14 10:30N 37°48' W 122°17'0 0.1
2018-Apr-14 10:00N 37°48' W 122°17'0 0.0
2018-Apr-14 09:30N 37°48' W 122°17'0 0.0
2018-Apr-14 09:01N 37°48' W 122°17'0 0.0
2018-Apr-14 08:30N 37°48' W 122°17'2 3.8
2018-Apr-14 08:00N 37°48' W 122°19'3 6.5
2018-Apr-14 07:30N 37°45' W 122°21'3 4.6
2018-Apr-14 06:58N 37°42' W 122°20'0 0.0
2018-Apr-14 03:28N 37°42' W 122°20'0 0.0
2018-Apr-14 02:58N 37°42' W 122°20'0 0.0
2018-Apr-14 01:52N 37°42' W 122°20'0 0.2
2018-Apr-14 01:19N 37°43' W 122°20'0 0.2
2018-Apr-14 00:58N 37°43' W 122°20'3 6.6
2018-Apr-14 00:30N 37°46' W 122°21'4 7.3
2018-Apr-14 00:01N 37°49' W 122°23'4 7.6
2018-Apr-13 23:30N 37°53' W 122°24'2 5.0
2018-Apr-13 23:00N 37°55' W 122°22'0 0.7
2018-Apr-13 22:23N 37°55' W 122°22'0 0.0
2018-Apr-13 21:59N 37°55' W 122°22'0 0.0
2018-Apr-13 21:29N 37°55' W 122°22'0 0.0
2018-Apr-13 20:59N 37°55' W 122°22'0 0.0
2018-Apr-13 20:29N 37°55' W 122°22'0 0.0
2018-Apr-13 19:59N 37°55' W 122°22'0 0.0
2018-Apr-13 19:29N 37°55' W 122°22'0 0.0
2018-Apr-13 19:00N 37°55' W 122°22'2 3.2
2018-Apr-13 18:30N 37°54' W 122°24'4 8.5
2018-Apr-13 18:00N 37°50' W 122°23'4 8.3
2018-Apr-13 17:30N 37°46' W 122°21'2 3.4
2018-Apr-13 17:01N 37°45' W 122°21'0 0.0
2018-Apr-13 16:30N 37°45' W 122°21'0 0.0
2018-Apr-13 16:00N 37°45' W 122°21'0 0.0
2018-Apr-13 15:30N 37°45' W 122°21'0 0.0
2018-Apr-13 15:00N 37°45' W 122°21'0 0.0
2018-Apr-13 14:30N 37°45' W 122°21'0 0.0
2018-Apr-13 14:00N 37°45' W 122°21'0 0.1
2018-Apr-13 13:30N 37°45' W 122°20'0 0.1
2018-Apr-13 13:00N 37°45' W 122°21'0 0.2
2018-Apr-13 12:30N 37°45' W 122°21'0 0.3
2018-Apr-13 12:00N 37°45' W 122°21'0 0.1
2018-Apr-13 11:30N 37°45' W 122°21'0 0.0
2018-Apr-13 11:00N 37°45' W 122°21'2 3.2
2018-Apr-13 10:30N 37°44' W 122°20'0 0.7
2018-Apr-13 10:00N 37°43' W 122°20'0 0.0
2018-Apr-13 09:30N 37°43' W 122°20'0 0.0
2018-Apr-13 09:00N 37°43' W 122°20'0 0.0
2018-Apr-13 08:30N 37°43' W 122°20'0 0.4
2018-Apr-13 08:00N 37°43' W 122°20'0 0.2
2018-Apr-13 07:15N 37°43' W 122°20'0 0.0
2018-Apr-13 04:45N 37°43' W 122°20'0 0.0
2018-Apr-13 04:27N 37°43' W 122°20'0 0.0
2018-Apr-13 03:27N 37°43' W 122°20'0 0.0
2018-Apr-13 03:00N 37°43' W 122°20'0 0.0
2018-Apr-13 02:30N 37°43' W 122°20'0 0.0
2018-Apr-13 00:25N 37°43' W 122°20'0 0.1
2018-Apr-13 00:00N 37°43' W 122°20'3 6.8
2018-Apr-12 23:30N 37°46' W 122°21'3 5.4
2018-Apr-12 23:00N 37°48' W 122°17'0 0.6
2018-Apr-12 22:25N 37°48' W 122°17'0 0.0
2018-Apr-12 21:55N 37°48' W 122°17'0 0.0
2018-Apr-12 21:28N 37°48' W 122°17'0 0.0
2018-Apr-12 20:58N 37°48' W 122°17'0 0.0
2018-Apr-12 20:28N 37°48' W 122°17'0 0.0
2018-Apr-12 19:58N 37°48' W 122°17'0 0.0
2018-Apr-12 19:28N 37°48' W 122°17'0 0.0
2018-Apr-12 18:55N 37°48' W 122°17'0 0.0
2018-Apr-12 18:25N 37°48' W 122°17'0 0.0
2018-Apr-12 17:58N 37°48' W 122°17'0 0.0
2018-Apr-12 17:19N 37°48' W 122°17'0 0.0
2018-Apr-12 16:58N 37°48' W 122°17'0 0.0
2018-Apr-12 16:28N 37°48' W 122°17'0 0.0
2018-Apr-12 15:58N 37°48' W 122°17'0 0.0
2018-Apr-12 15:25N 37°48' W 122°17'0 0.3
2018-Apr-12 15:00N 37°48' W 122°17'0 0.2
2018-Apr-12 14:30N 37°48' W 122°17'0 0.5
2018-Apr-12 14:00N 37°48' W 122°17'0 0.4
2018-Apr-12 13:30N 37°48' W 122°17'0 0.3
2018-Apr-12 13:00N 37°48' W 122°17'0 0.1
2018-Apr-12 12:30N 37°48' W 122°17'0 0.0
2018-Apr-12 12:00N 37°48' W 122°17'0 0.0
2018-Apr-12 11:30N 37°48' W 122°17'0 0.0
2018-Apr-12 11:00N 37°48' W 122°17'0 0.0
2018-Apr-12 10:30N 37°48' W 122°17'0 0.0
2018-Apr-12 10:00N 37°48' W 122°17'0 0.0
2018-Apr-12 09:30N 37°48' W 122°17'0 0.0
2018-Apr-12 09:00N 37°48' W 122°17'0 0.0
2018-Apr-12 08:30N 37°48' W 122°17'0 0.0
2018-Apr-12 08:00N 37°48' W 122°17'0 0.0
2018-Apr-12 07:30N 37°48' W 122°17'0 0.0
2018-Apr-12 07:00N 37°48' W 122°17'0 0.0
2018-Apr-12 06:30N 37°48' W 122°17'0 0.0
2018-Apr-12 06:00N 37°48' W 122°17'0 0.0
2018-Apr-12 05:30N 37°48' W 122°17'0 0.0
2018-Apr-12 05:00N 37°48' W 122°17'0 0.0
2018-Apr-12 04:30N 37°48' W 122°17'0 0.0
2018-Apr-12 04:00N 37°48' W 122°17'0 0.0
2018-Apr-12 03:30N 37°48' W 122°17'0 0.0
2018-Apr-12 03:00N 37°48' W 122°17'0 0.0
2018-Apr-12 02:30N 37°48' W 122°17'0 0.0
2018-Apr-12 02:00N 37°48' W 122°17'0 0.0
2018-Apr-12 01:30N 37°48' W 122°17'0 0.0
2018-Apr-12 01:00N 37°48' W 122°17'0 0.0
2018-Apr-12 00:30N 37°48' W 122°17'0 0.0
2018-Apr-12 00:00N 37°48' W 122°17'0 0.0
2018-Apr-11 23:30N 37°48' W 122°17'0 0.0
2018-Apr-11 23:00N 37°48' W 122°17'0 0.0
2018-Apr-11 22:30N 37°48' W 122°17'0 0.0
2018-Apr-11 22:00N 37°48' W 122°17'0 0.0
2018-Apr-11 21:30N 37°48' W 122°17'0 0.0
2018-Apr-11 21:00N 37°48' W 122°17'0 0.0
2018-Apr-11 20:30N 37°48' W 122°17'0 0.0
2018-Apr-11 20:00N 37°48' W 122°17'0 0.0
2018-Apr-11 19:30N 37°48' W 122°17'0 0.0
2018-Apr-11 19:00N 37°48' W 122°17'0 0.0
2018-Apr-11 18:30N 37°48' W 122°17'0 0.0
2018-Apr-11 18:00N 37°48' W 122°17'0 0.0
2018-Apr-11 17:30N 37°48' W 122°17'0 0.0
2018-Apr-11 17:01N 37°48' W 122°17'0 0.0
2018-Apr-11 16:30N 37°48' W 122°17'0 0.0
2018-Apr-11 16:00N 37°48' W 122°17'0 0.0
2018-Apr-11 15:30N 37°48' W 122°17'0 0.0
2018-Apr-11 15:00N 37°48' W 122°17'0 0.0
2018-Apr-11 14:30N 37°48' W 122°17'0 0.0
2018-Apr-11 14:00N 37°48' W 122°17'0 0.0
2018-Apr-11 13:30N 37°48' W 122°17'0 0.0
2018-Apr-11 13:00N 37°48' W 122°17'0 0.0
2018-Apr-11 12:30N 37°48' W 122°17'0 0.0
2018-Apr-11 12:00N 37°48' W 122°17'0 0.0
2018-Apr-11 11:30N 37°48' W 122°17'0 0.0
2018-Apr-11 11:00N 37°48' W 122°17'0 0.0
2018-Apr-11 10:30N 37°48' W 122°17'0 0.0
2018-Apr-11 10:00N 37°48' W 122°17'0 0.0
2018-Apr-11 09:31N 37°48' W 122°17'0 0.0
2018-Apr-11 09:00N 37°48' W 122°17'0 0.0
2018-Apr-11 08:30N 37°48' W 122°17'0 0.0
2018-Apr-11 08:00N 37°48' W 122°17'0 0.0
2018-Apr-11 07:30N 37°48' W 122°17'0 0.0
2018-Apr-11 07:00N 37°48' W 122°17'0 0.0
2018-Apr-11 06:30N 37°48' W 122°17'0 0.0
2018-Apr-11 06:00N 37°48' W 122°17'0 0.0
2018-Apr-11 05:30N 37°48' W 122°17'0 0.0
2018-Apr-11 05:00N 37°48' W 122°17'0 0.0
2018-Apr-11 04:30N 37°48' W 122°17'0 0.0
2018-Apr-11 04:00N 37°48' W 122°17'0 0.0
2018-Apr-11 03:30N 37°48' W 122°17'0 0.0
2018-Apr-11 03:00N 37°48' W 122°17'0 0.0
2018-Apr-11 02:30N 37°48' W 122°17'0 0.0
2018-Apr-11 02:00N 37°48' W 122°17'0 0.0
2018-Apr-11 01:30N 37°48' W 122°17'0 0.0
2018-Apr-11 01:00N 37°48' W 122°17'0 0.0
2018-Apr-11 00:30N 37°48' W 122°17'0 0.0
2018-Apr-11 00:00N 37°48' W 122°17'0 0.0
2018-Apr-10 23:30N 37°48' W 122°17'0 0.0
2018-Apr-10 23:00N 37°48' W 122°17'0 0.0
2018-Apr-10 22:30N 37°48' W 122°17'0 0.0
2018-Apr-10 22:00N 37°48' W 122°17'0 0.0
2018-Apr-10 21:30N 37°48' W 122°17'0 0.0
2018-Apr-10 21:00N 37°48' W 122°17'0 0.0
2018-Apr-10 20:30N 37°48' W 122°17'0 0.0
2018-Apr-10 20:00N 37°48' W 122°17'0 0.0
2018-Apr-10 19:30N 37°48' W 122°17'0 0.0
2018-Apr-10 19:00N 37°48' W 122°17'0 0.0
2018-Apr-10 18:30N 37°48' W 122°17'0 0.0
2018-Apr-10 18:00N 37°48' W 122°17'0 0.0
2018-Apr-10 17:30N 37°48' W 122°17'0 0.0
2018-Apr-10 17:00N 37°48' W 122°17'0 0.0
2018-Apr-10 16:30N 37°48' W 122°17'0 0.0
2018-Apr-10 16:00N 37°48' W 122°17'0 0.0
2018-Apr-10 15:30N 37°48' W 122°17'0 0.0
2018-Apr-10 15:00N 37°48' W 122°17'0 0.0
2018-Apr-10 14:30N 37°48' W 122°17'0 0.0
2018-Apr-10 14:00N 37°48' W 122°17'0 0.0
2018-Apr-10 13:30N 37°48' W 122°17'0 0.0
2018-Apr-10 13:00N 37°48' W 122°17'0 0.0
2018-Apr-10 12:30N 37°48' W 122°17'0 0.0
2018-Apr-10 12:00N 37°48' W 122°17'0 0.0
2018-Apr-10 11:30N 37°48' W 122°17'0 0.0
2018-Apr-10 10:59N 37°48' W 122°17'0 0.0
2018-Apr-10 10:30N 37°48' W 122°17'0 0.0
2018-Apr-10 10:00N 37°48' W 122°17'0 0.0
2018-Apr-10 09:30N 37°48' W 122°17'0 0.0
2018-Apr-10 09:00N 37°48' W 122°17'0 0.0
2018-Apr-10 08:30N 37°48' W 122°17'0 0.0
2018-Apr-10 08:00N 37°48' W 122°17'0 0.0
2018-Apr-10 07:30N 37°48' W 122°17'0 0.0
2018-Apr-10 07:00N 37°48' W 122°17'0 0.0
2018-Apr-10 06:30N 37°48' W 122°17'0 0.0
2018-Apr-10 06:00N 37°48' W 122°17'0 0.0
2018-Apr-10 05:30N 37°48' W 122°17'0 0.0
2018-Apr-10 05:00N 37°48' W 122°17'0 0.0
2018-Apr-10 04:30N 37°48' W 122°17'0 0.0
2018-Apr-10 04:00N 37°48' W 122°17'0 0.0
2018-Apr-10 03:30N 37°48' W 122°17'0 0.0
2018-Apr-10 03:01N 37°48' W 122°17'0 0.0
2018-Apr-10 02:30N 37°48' W 122°17'0 0.0
2018-Apr-10 02:00N 37°48' W 122°17'0 0.0
2018-Apr-10 01:30N 37°48' W 122°17'0 0.1
2018-Apr-10 01:00N 37°48' W 122°17'0 0.1
2018-Apr-10 00:30N 37°48' W 122°17'0 0.0
2018-Apr-10 00:00N 37°48' W 122°17'0 0.0
2018-Apr-09 23:30N 37°48' W 122°17'0 0.0
2018-Apr-09 23:00N 37°48' W 122°17'0 0.0
2018-Apr-09 22:30N 37°48' W 122°17'0 0.0
2018-Apr-09 22:00N 37°48' W 122°17'0 0.1
2018-Apr-09 21:30N 37°48' W 122°17'1 1.4
2018-Apr-09 21:00N 37°48' W 122°18'4 7.2
2018-Apr-09 20:30N 37°50' W 122°22'4 7.7
2018-Apr-09 20:00N 37°53' W 122°24'2 4.6
2018-Apr-09 19:30N 37°55' W 122°22'0 0.7
2018-Apr-09 18:57N 37°55' W 122°22'0 0.0
2018-Apr-09 18:12N 37°55' W 122°22'0 0.0
2018-Apr-09 18:00N 37°55' W 122°22'0 0.0
2018-Apr-09 17:21N 37°55' W 122°22'0 0.0
2018-Apr-09 17:00N 37°55' W 122°22'0 0.0
2018-Apr-09 16:18N 37°55' W 122°22'0 0.0
2018-Apr-09 16:00N 37°55' W 122°22'0 0.0
2018-Apr-09 15:30N 37°55' W 122°22'  

Dump ship's entire track history